Time;durP1;ratioP1;P1;durP2;ratioP2;P2;SDS_P1;SDS_P2;PMS_P1;PMS_P2;Temp;Humidity;BMP_temperature;BMP_pressure;BME280_temperature;BME280_humidity;BME280_pressure;Samples;Min_cycle;Max_cycle;Signal;HPM_P1;HPM_P2
2022/06/23 00:01:20;;;;;;;4.20;3.53;;;18.30;62.40;;;;;;5032262;28;20498;-72
2022/06/23 00:03:48;;;;;;;5.93;3.40;;;18.10;62.60;;;;;;5042317;28;20078;-71
2022/06/23 00:06:45;;;;;;;4.85;3.67;;;18.20;62.30;;;;;;5040064;28;20039;-71
2022/06/23 00:09:48;;;;;;;5.07;3.67;;;18.00;62.50;;;;;;5031845;28;20072;-70
2022/06/23 00:12:29;;;;;;;5.57;3.58;;;18.00;62.60;;;;;;5037778;28;20530;-71
2022/06/23 00:15:06;;;;;;;5.30;3.72;;;;;;;;;;5045494;28;20029;-71
2022/06/23 00:17:37;;;;;;;7.05;4.15;;;;;;;;;;5033308;28;20017;-69
2022/06/23 00:20:06;;;;;;;6.32;3.88;;;;;;;;;;5039023;28;20037;-71
2022/06/23 00:22:33;;;;;;;7.22;4.65;;;;;;;;;;5042291;28;20554;-70
2022/06/23 00:25:01;;;;;;;4.70;3.80;;;;;;;;;;5022053;28;20119;-70
2022/06/23 00:27:29;;;;;;;5.53;3.88;;;;;;;;;;5033007;28;20521;-71
2022/06/23 00:30:28;;;;;;;5.47;3.88;;;17.50;64.80;;;;;;5040227;28;20074;-71
2022/06/23 00:32:53;;;;;;;8.65;4.07;;;17.40;65.20;;;;;;5045560;28;20087;-70
2022/06/23 00:35:19;;;;;;;11.32;4.13;;;17.30;65.50;;;;;;5016227;28;20021;-71
2022/06/23 00:37:49;;;;;;;6.22;3.63;;;17.20;65.50;;;;;;5041420;28;20546;-71
2022/06/23 00:40:17;;;;;;;6.95;3.80;;;;;;;;;;5040189;28;20455;-70
2022/06/23 00:43:02;;;;;;;5.57;4.15;;;17.20;65.70;;;;;;5033442;28;20434;-68
2022/06/23 00:45:40;;;;;;;4.97;3.55;;;17.00;65.90;;;;;;5018461;28;20025;-71
2022/06/23 00:48:23;;;;;;;7.57;4.03;;;17.00;66.10;;;;;;5038684;28;20030;-71
2022/06/23 00:51:17;;;;;;;5.75;3.80;;;17.00;65.90;;;;;;5026522;28;20025;-73
2022/06/23 00:53:48;;;;;;;4.90;3.95;;;16.90;66.30;;;;;;5004839;28;20258;-72
2022/06/23 00:56:42;;;;;;;5.10;4.00;;;16.90;66.30;;;;;;5037570;28;20037;-69
2022/06/23 00:59:13;;;;;;;8.93;4.07;;;17.00;66.40;;;;;;5044515;28;20049;-70
2022/06/23 01:01:42;;;;;;;7.57;3.60;;;16.90;66.70;;;;;;5034509;28;20025;-71
2022/06/23 01:04:30;;;;;;;7.70;3.70;;;16.90;66.80;;;;;;5038210;28;20138;-71
2022/06/23 01:07:11;;;;;;;5.15;3.78;;;16.90;66.80;;;;;;5044885;28;20049;-71
2022/06/23 01:09:44;;;;;;;;;;;16.80;66.90;;;;;;5034719;28;20063;-71
2022/06/23 01:12:16;;;;;;;5.88;4.00;;;16.80;66.80;;;;;;5037775;28;19909;-71
2022/06/23 01:15:00;;;;;;;;;;;16.70;67.10;;;;;;5041907;28;20432;-71
2022/06/23 01:17:34;;;;;;;6.65;3.75;;;16.70;67.40;;;;;;5016850;28;19955;-69
2022/06/23 01:20:35;;;;;;;5.13;3.78;;;16.60;67.40;;;;;;5038861;28;20048;-71
2022/06/23 01:23:21;;;;;;;6.82;3.90;;;16.70;67.40;;;;;;5044635;28;20045;-71
2022/06/23 01:26:02;;;;;;;5.25;3.55;;;16.60;67.50;;;;;;5018746;28;20040;-71
2022/06/23 01:28:40;;;;;;;5.87;3.97;;;16.60;67.60;;;;;;5041497;28;20021;-70
2022/06/23 01:31:37;;;;;;;4.90;3.72;;;16.60;67.80;;;;;;5033624;28;20391;-69
2022/06/23 01:34:12;;;;;;;5.80;3.28;;;16.60;67.60;;;;;;5025858;28;20044;-72
2022/06/23 01:36:50;;;;;;;7.07;3.88;;;16.50;67.60;;;;;;5046196;28;20047;-71
2022/06/23 01:39:25;;;;;;;4.88;4.07;;;16.50;67.70;;;;;;5035200;28;20382;-69
2022/06/23 01:41:59;;;;;;;5.00;3.55;;;16.50;67.80;;;;;;5043786;28;20021;-70
2022/06/23 01:44:51;;;;;;;5.15;3.55;;;;;;;;;;5044036;28;20040;-70
2022/06/23 01:47:28;;;;;;;8.38;3.80;;;16.40;68.10;;;;;;5034455;28;20508;-69
2022/06/23 01:50:18;;;;;;;4.72;3.53;;;16.40;68.20;;;;;;5042978;28;20026;-71
2022/06/23 01:52:47;;;;;;;4.90;3.88;;;16.40;68.40;;;;;;5046217;28;20062;-70
2022/06/23 01:55:16;;;;;;;6.20;3.80;;;16.30;68.40;;;;;;5034697;28;20051;-70
2022/06/23 01:57:49;;;;;;;10.77;4.40;;;16.40;68.40;;;;;;5043896;28;20074;-70
2022/06/23 02:00:20;;;;;;;4.38;3.60;;;16.40;68.00;;;;;;5042167;28;20036;-70
2022/06/23 02:03:10;;;;;;;6.50;3.77;;;16.50;67.60;;;;;;5035622;28;20509;-72
2022/06/23 02:06:17;;;;;;;5.70;3.65;;;16.50;67.40;;;;;;5023018;28;20158;-70
2022/06/23 02:08:55;;;;;;;4.95;4.10;;;16.50;67.60;;;;;;5035807;28;20525;-70
2022/06/23 02:11:33;;;;;;;5.45;4.07;;;16.50;67.70;;;;;;5018557;28;20029;-70
2022/06/23 02:14:05;;;;;;;6.50;3.78;;;16.30;67.90;;;;;;5042065;28;20024;-69
2022/06/23 02:16:37;;;;;;;5.10;3.67;;;16.30;68.00;;;;;;5044348;28;20021;-70
2022/06/23 02:19:19;;;;;;;10.18;3.75;;;16.20;68.00;;;;;;5034324;28;20029;-70
2022/06/23 02:21:51;;;;;;;6.40;4.05;;;16.20;68.60;;;;;;5043751;28;20040;-71
2022/06/23 02:24:38;;;;;;;5.60;4.07;;;16.10;68.50;;;;;;5019922;28;20021;-70
2022/06/23 02:27:20;;;;;;;5.78;3.90;;;16.10;68.80;;;;;;5029080;28;20490;-68
2022/06/23 02:29:50;;;;;;;;;;;16.10;68.80;;;;;;5038118;28;20030;-71
2022/06/23 02:32:34;;;;;;;7.72;4.28;;;16.00;68.70;;;;;;5039247;28;19906;-71
2022/06/23 02:35:08;;;;;;;7.32;4.28;;;16.00;68.80;;;;;;5047096;28;20025;-70
2022/06/23 02:38:03;;;;;;;6.63;4.03;;;15.90;69.10;;;;;;5036313;28;20468;-71
2022/06/23 02:40:44;;;;;;;6.30;3.75;;;15.90;69.30;;;;;;5036993;28;20104;-72
2022/06/23 02:43:13;;;;;;;5.15;3.83;;;15.90;69.20;;;;;;5047032;28;20111;-69
2022/06/23 02:46:03;;;;;;;6.45;4.10;;;15.90;69.10;;;;;;5018700;28;20099;-70
2022/06/23 02:49:22;;;;;;;7.40;4.72;;;15.90;69.20;;;;;;5037027;28;20040;-70
2022/06/23 02:52:08;;;;;;;6.13;3.83;;;15.90;69.10;;;;;;5021841;28;20025;-71
2022/06/23 02:54:48;;;;;;;5.57;3.78;;;15.80;68.90;;;;;;5037381;28;20519;-67
2022/06/23 02:57:26;;;;;;;6.45;4.15;;;15.70;69.50;;;;;;5046579;28;20137;-71
2022/06/23 02:59:57;;;;;;;6.32;4.10;;;15.70;69.50;;;;;;5038183;28;20021;-69
2022/06/23 03:02:35;;;;;;;4.25;3.85;;;15.80;69.50;;;;;;5019893;28;20120;-71
2022/06/23 03:05:07;;;;;;;24.75;14.43;;;15.80;69.70;;;;;;5046993;28;20121;-71
2022/06/23 03:07:39;;;;;;;;;;;15.80;69.80;;;;;;5035685;28;20040;-71
2022/06/23 03:10:23;;;;;;;10.60;7.03;;;15.80;69.40;;;;;;5040128;28;19913;-71
2022/06/23 03:13:08;;;;;;;15.05;7.43;;;15.80;69.50;;;;;;5028023;28;20066;-71
2022/06/23 03:15:50;;;;;;;12.93;5.95;;;15.90;69.20;;;;;;5021587;28;20494;-70
2022/06/23 03:18:21;;;;;;;343.38;197.13;;;16.00;68.90;;;;;;5038376;28;20022;-71
2022/06/23 03:20:58;;;;;;;189.00;92.25;;;16.10;68.50;;;;;;5045334;28;20370;-71
2022/06/23 03:23:37;;;;;;;14.77;8.88;;;16.10;68.60;;;;;;5018349;28;20490;-68
2022/06/23 03:26:24;;;;;;;12.40;6.15;;;16.20;67.90;;;;;;5040296;28;20033;-70
2022/06/23 03:29:00;;;;;;;8.25;4.78;;;16.80;66.30;;;;;;5033724;28;20026;-71
2022/06/23 03:31:47;;;;;;;14.88;8.60;;;17.60;63.20;;;;;;5018579;28;20506;-72
2022/06/23 03:34:25;;;;;;;9.80;6.15;;;18.50;60.40;;;;;;5038646;28;20050;-72
2022/06/23 03:36:58;;;;;;;10.93;4.95;;;19.70;57.40;;;;;;5045755;28;20047;-71
2022/06/23 03:42:51;;;;;;;3.47;2.78;;;21.50;51.20;;;;;;5035467;28;20037;-71
2022/06/23 03:45:34;;;;;;;4.80;3.00;;;;;;;;;;5045670;28;20371;-71
2022/06/23 03:48:22;;;;;;;5.70;2.80;;;23.20;46.50;;;;;;5038100;28;20037;-72
2022/06/23 03:51:03;;;;;;;3.55;2.90;;;23.70;44.80;;;;;;5033248;28;20026;-71
2022/06/23 03:53:35;;;;;;;4.83;2.53;;;24.60;43.10;;;;;;5017959;28;20386;-70
2022/06/23 03:56:08;;;;;;;4.97;2.55;;;24.90;41.80;;;;;;5039641;28;20043;-72
2022/06/23 03:58:43;;;;;;;6.55;2.47;;;25.20;41.30;;;;;;5042528;28;20081;-71
2022/06/23 04:01:11;;;;;;;4.85;2.63;;;25.80;40.50;;;;;;5032457;28;20479;-71
2022/06/23 04:03:46;;;;;;;3.78;2.67;;;27.00;37.90;;;;;;5043415;28;20032;-70
2022/06/23 04:06:32;;;;;;;5.22;2.35;;;27.30;36.90;;;;;;5040063;28;20032;-71
2022/06/23 04:08:58;;;;;;;3.83;2.53;;;;;;;;;;5032323;28;20025;-70
2022/06/23 04:11:46;;;;;;;5.70;2.47;;;;;;;;;;5045124;28;20078;-72
2022/06/23 04:14:15;;;;;;;4.35;2.42;;;;;;;;;;5022114;28;20485;-70
2022/06/23 04:16:41;;;;;;;3.63;2.20;;;;;;;;;;5034099;28;20082;-71
2022/06/23 04:19:11;;;;;;;3.35;2.47;;;;;;;;;;5045237;28;20033;-70
2022/06/23 04:21:40;;;;;;;4.70;2.08;;;;;;;;;;5034925;28;20097;-70
2022/06/23 04:24:12;;;;;;;4.57;2.22;;;30.90;30.80;;;;;;5036174;28;20105;-70
2022/06/23 04:26:40;;;;;;;4.40;2.55;;;;;;;;;;5037546;28;20021;-70
2022/06/23 04:29:11;;;;;;;4.47;2.33;;;;;;;;;;5031891;28;20382;-71
2022/06/23 04:31:39;;;;;;;2.67;2.10;;;;;;;;;;5042673;28;20028;-70
2022/06/23 04:34:05;;;;;;;4.30;2.35;;;;;;;;;;5038220;28;20046;-73
2022/06/23 04:36:33;;;;;;;5.63;2.40;;;;;;;;;;5035033;28;20356;-73
2022/06/23 04:39:18;;;;;;;6.10;2.20;;;;;;;;;;5044662;28;20021;-71
2022/06/23 04:41:45;;;;;;;3.55;2.15;;;;;;;;;;5035721;28;20392;-72
2022/06/23 04:44:31;;;;;;;4.05;2.20;;;;;;;;;;5038057;28;20112;-69
2022/06/23 04:47:00;;;;;;;2.95;2.10;;;;;;;;;;5045322;28;20033;-72
2022/06/23 04:49:48;;;;;;;4.00;1.90;;;;;;;;;;5033438;28;20028;-72
2022/06/23 04:52:17;;;;;;;3.65;2.08;;;;;;;;;;5037440;28;20394;-72
2022/06/23 04:55:04;;;;;;;4.00;2.35;;;;;;;;;;5042951;28;20074;-71
2022/06/23 04:57:38;;;;;;;2.88;2.05;;;;;;;;;;5018176;28;20020;-71
2022/06/23 05:00:05;;;;;;;4.40;2.47;;;;;;;;;;5038336;28;20052;-72
2022/06/23 05:02:42;;;;;;;5.78;2.38;;;;;;;;;;5034719;28;20462;-72
2022/06/23 05:05:16;;;;;;;2.65;2.30;;;32.90;27.20;;;;;;5033468;28;20038;-72
2022/06/23 05:08:19;;;;;;;7.00;2.28;;;32.70;27.60;;;;;;5041794;28;20021;-73
2022/06/23 05:11:12;;;;;;;6.60;2.47;;;31.80;28.60;;;;;;5039357;28;20083;-71
2022/06/23 05:13:40;;;;;;;4.68;2.92;;;;;;;;;;5026112;28;20039;-72
2022/06/23 05:16:12;;;;;;;4.75;2.80;;;;;;;;;;5041033;28;20108;-72
2022/06/23 05:18:41;;;;;;;6.68;2.88;;;;;;;;;;5037300;28;20079;-73
2022/06/23 05:21:14;;;;;;;7.07;2.90;;;;;;;;;;5044571;22;20099;-69
2022/06/23 05:23:44;;;;;;;10.13;2.30;;;31.90;28.80;;;;;;5022773;28;20032;-69
2022/06/23 05:26:30;;;;;;;5.27;2.87;;;32.40;28.40;;;;;;5010936;28;20022;-70
2022/06/23 05:29:04;;;;;;;3.42;2.22;;;33.50;27.00;;;;;;5018968;28;20034;-70
2022/06/23 05:31:34;;;;;;;3.60;2.45;;;34.50;25.70;;;;;;4999381;28;20022;-68
2022/06/23 05:34:30;;;;;;;4.63;2.95;;;33.90;26.40;;;;;;4998282;28;20450;-69
2022/06/23 05:37:03;;;;;;;4.68;2.70;;;33.10;27.40;;;;;;5041759;28;20037;-70
2022/06/23 05:39:34;;;;;;;5.20;2.22;;;33.20;27.20;;;;;;4993823;28;20536;-70
2022/06/23 05:42:07;;;;;;;7.75;2.55;;;34.30;26.30;;;;;;4999259;28;20387;-71
2022/06/23 05:44:34;;;;;;;9.65;2.60;;;;;;;;;;5009742;28;20026;-69
2022/06/23 05:47:01;;;;;;;6.82;2.75;;;;;;;;;;5010387;28;20050;-70
2022/06/23 05:49:34;;;;;;;7.15;3.10;;;;;;;;;;5079120;28;20036;-70
2022/06/23 05:52:05;;;;;;;6.63;2.78;;;;;;;;;;5010883;28;20025;-70
2022/06/23 05:54:41;;;;;;;8.40;3.20;;;33.40;27.20;;;;;;5011228;28;20025;-70
2022/06/23 05:57:39;;;;;;;5.78;2.30;;;33.40;27.60;;;;;;5010757;28;20026;-69
2022/06/23 06:00:28;;;;;;;7.70;3.00;;;34.90;25.60;;;;;;5011124;28;20034;-69
2022/06/23 06:03:06;;;;;;;6.55;2.75;;;36.00;24.20;;;;;;5004461;28;20034;-70
2022/06/23 06:05:32;;;;;;;10.57;3.33;;;;;;;;;;4982509;28;20100;-70
2022/06/23 06:08:01;;;;;;;7.43;3.20;;;31.50;29.80;;;;;;5011074;28;20050;-68
2022/06/23 06:10:29;;;;;;;8.55;3.05;;;31.00;30.50;;;;;;5011060;28;20064;-67
2022/06/23 06:12:56;;;;;;;5.63;2.58;;;;;;;;;;5010985;28;20018;-68
2022/06/23 06:15:27;;;;;;;9.32;3.45;;;;;;;;;;5009069;28;20022;-68
2022/06/23 06:18:00;;;;;;;7.05;3.03;;;;;;;;;;5007333;28;20022;-67
2022/06/23 06:20:27;;;;;;;12.25;3.30;;;;;;;;;;4994666;28;20046;-68
2022/06/23 06:23:02;;;;;;;6.70;3.05;;;;;;;;;;4995694;28;20377;-67
2022/06/23 06:25:33;;;;;;;7.88;3.38;;;;;;;;;;4984653;28;20499;-67
2022/06/23 06:28:19;;;;;;;5.75;2.80;;;;;;;;;;5008810;28;20040;-68
2022/06/23 06:30:49;;;;;;;10.98;3.20;;;;;;;;;;5010616;28;20025;-68
2022/06/23 06:33:32;;;;;;;10.68;3.30;;;32.60;27.80;;;;;;5001898;28;20144;-69
2022/06/23 06:35:58;;;;;;;11.80;3.25;;;32.00;29.10;;;;;;4995801;28;20408;-68
2022/06/23 06:38:28;;;;;;;9.52;3.47;;;31.10;29.80;;;;;;4998691;28;20110;-69
2022/06/23 06:40:57;;;;;;;10.70;3.55;;;30.80;30.80;;;;;;4991794;28;20030;-68
2022/06/23 06:43:29;;;;;;;8.90;3.92;;;31.20;30.00;;;;;;5022342;28;20022;-69
2022/06/23 06:45:57;;;;;;;10.77;3.75;;;31.00;30.60;;;;;;5010842;28;20063;-68
2022/06/23 06:48:32;;;;;;;8.00;3.35;;;31.40;29.90;;;;;;5010315;28;20087;-69
2022/06/23 06:51:08;;;;;;;8.88;4.03;;;32.00;29.00;;;;;;5008837;28;20491;-69
2022/06/23 06:53:41;;;;;;;10.93;3.78;;;33.80;26.50;;;;;;4996301;28;20022;-69
2022/06/23 06:56:32;;;;;;;10.15;3.53;;;34.40;25.60;;;;;;5006760;28;20161;-69
2022/06/23 06:59:09;;;;;;;8.18;3.60;;;34.00;26.10;;;;;;5010087;28;20172;-68
2022/06/23 07:01:37;;;;;;;14.05;4.03;;;34.20;25.70;;;;;;5010901;28;20018;-72
2022/06/23 07:04:03;;;;;;;5.18;3.13;;;33.10;26.70;;;;;;5009970;28;20087;-69
2022/06/23 07:06:50;;;;;;;15.90;7.88;;;34.30;25.90;;;;;;5010282;28;20037;-71
2022/06/23 07:09:31;;;;;;;9.40;3.80;;;36.40;23.70;;;;;;5009747;28;20422;-69
2022/06/23 07:12:18;;;;;;;9.30;3.22;;;34.80;25.00;;;;;;5010151;28;20547;-71
2022/06/23 07:14:53;;;;;;;11.88;3.40;;;35.80;24.10;;;;;;5010034;28;20026;-69
2022/06/23 07:17:43;;;;;;;9.35;3.45;;;37.10;23.40;;;;;;4977461;28;20022;-70
2022/06/23 07:20:35;;;;;;;15.73;4.03;;;38.90;21.00;;;;;;5009828;28;20078;-68
2022/06/23 07:23:32;;;;;;;124.97;103.85;;;38.10;21.50;;;;;;5077470;28;20158;-70
2022/06/23 07:26:18;;;;;;;11.43;6.47;;;36.60;23.60;;;;;;5000555;28;20061;-69
2022/06/23 07:28:55;;;;;;;10.38;5.40;;;38.20;21.80;;;;;;5009377;28;20603;-68
2022/06/23 07:31:30;;;;;;;11.98;5.68;;;40.00;20.40;;;;;;4978028;28;20087;-68
2022/06/23 07:34:16;;;;;;;5.38;2.80;;;40.90;19.10;;;;;;5009676;28;20041;-69
2022/06/23 07:36:58;;;;;;;8.55;3.30;;;38.40;20.80;;;;;;5009545;28;20440;-69
2022/06/23 07:39:37;;;;;;;10.13;3.22;;;38.40;20.60;;;;;;4978650;28;20022;-69
2022/06/23 07:42:37;;;;;;;11.50;2.92;;;37.20;21.90;;;;;;5009822;28;20022;-69
2022/06/23 07:45:12;;;;;;;9.27;3.42;;;36.40;22.80;;;;;;5009911;28;20363;-70
2022/06/23 07:47:38;;;;;;;8.05;3.00;;;36.30;23.10;;;;;;5009481;28;20392;-68
2022/06/23 07:50:04;;;;;;;6.25;2.88;;;37.50;22.10;;;;;;5009368;28;20026;-69
2022/06/23 07:52:29;;;;;;;12.60;3.03;;;39.10;20.90;;;;;;5009829;28;20057;-70
2022/06/23 07:55:00;;;;;;;8.40;2.58;;;;;;;;;;5009554;28;20054;-70
2022/06/23 07:57:35;;;;;;;7.53;2.50;;;35.30;23.10;;;;;;5008953;28;20018;-72
2022/06/23 08:00:06;;;;;;;4.10;2.42;;;34.70;23.20;;;;;;5006088;28;20022;-70
2022/06/23 08:02:45;;;;;;;5.65;2.55;;;35.20;23.00;;;;;;5008239;28;20053;-70
2022/06/23 08:05:13;;;;;;;7.53;2.65;;;36.00;22.20;;;;;;5007674;28;20532;-70
2022/06/23 08:07:39;;;;;;;9.45;3.17;;;36.90;21.40;;;;;;5008006;28;20034;-70
2022/06/23 08:10:17;;;;;;;7.63;2.88;;;35.10;23.20;;;;;;5008537;28;20446;-70
2022/06/23 08:13:02;;;;;;;5.82;2.60;;;34.90;23.50;;;;;;5009659;28;20026;-70
2022/06/23 08:18:30;;;;;;;9.30;3.08;;;34.20;25.00;;;;;;5009768;28;20036;-70
2022/06/23 08:21:28;;;;;;;6.25;2.72;;;34.90;24.20;;;;;;5009792;28;20042;-70
2022/06/23 08:24:00;;;;;;;7.25;2.35;;;36.00;22.40;;;;;;5077419;28;20107;-69
2022/06/23 08:26:26;;;;;;;5.90;2.33;;;36.10;22.50;;;;;;5010118;28;20033;-70
2022/06/23 08:28:55;;;;;;;7.95;2.40;;;37.60;21.20;;;;;;5010204;28;20041;-69
2022/06/23 08:31:21;;;;;;;8.32;2.40;;;36.20;21.50;;;;;;5077226;28;20540;-69
2022/06/23 08:33:47;;;;;;;7.25;2.58;;;34.60;23.50;;;;;;5077848;28;20034;-69
2022/06/23 08:36:20;;;;;;;7.85;2.90;;;36.20;22.70;;;;;;5009404;28;20022;-70
2022/06/23 08:38:53;;;;;;;5.22;2.20;;;37.80;21.40;;;;;;5008649;28;20395;-70
2022/06/23 08:41:53;;;;;;;5.45;2.00;;;38.60;20.00;;;;;;5077058;28;20058;-70
2022/06/23 08:44:37;;;;;;;5.47;2.22;;;39.20;19.30;;;;;;5009401;28;20391;-70
2022/06/23 08:47:36;;;;;;;7.47;2.35;;;38.30;20.10;;;;;;5009457;28;20523;-67
2022/06/23 08:50:19;;;;;;;9.93;2.33;;;37.00;20.80;;;;;;5009398;28;20026;-69
2022/06/23 08:53:13;;;;;;;6.57;1.85;;;36.20;21.70;;;;;;5009370;28;20391;-70
2022/06/23 08:55:51;;;;;;;8.07;1.98;;;37.40;21.20;;;;;;5011248;28;20034;-70
2022/06/23 08:59:01;;;;;;;3.40;1.95;;;38.90;20.10;;;;;;5008962;28;20057;-71
2022/06/23 09:01:55;;;;;;;7.43;1.90;;;39.90;18.80;;;;;;5009625;28;20085;-70
2022/06/23 09:04:39;;;;;;;5.43;1.50;;;40.30;18.00;;;;;;4992447;28;20034;-71
2022/06/23 09:07:16;;;;;;;6.25;1.67;;;39.80;18.00;;;;;;4989770;28;20026;-70
2022/06/23 09:09:53;;;;;;;4.65;1.77;;;39.40;18.20;;;;;;4992224;28;20038;-70
2022/06/23 09:12:36;;;;;;;6.57;1.75;;;38.60;18.50;;;;;;4991368;28;20029;-70
2022/06/23 09:15:11;;;;;;;4.60;1.55;;;37.40;19.00;;;;;;4989354;28;20022;-70
2022/06/23 09:17:52;;;;;;;3.17;1.65;;;37.60;19.30;;;;;;4989777;28;20054;-69
2022/06/23 09:20:17;;;;;;;4.90;1.92;;;36.10;19.50;;;;;;5059389;28;20387;-70
2022/06/23 09:23:14;;;;;;;4.60;1.92;;;35.20;21.00;;;;;;4990552;28;20109;-69
2022/06/23 09:26:15;;;;;;;2.42;1.63;;;34.50;21.50;;;;;;4989907;28;20077;-70
2022/06/23 09:29:19;;;;;;;5.43;1.50;;;33.40;22.20;;;;;;4989360;28;20023;-71
2022/06/23 09:31:53;;;;;;;2.63;1.80;;;34.10;22.60;;;;;;4989260;28;20099;-70
2022/06/23 09:34:32;;;;;;;3.83;1.90;;;35.40;22.00;;;;;;4988964;28;20096;-69
2022/06/23 09:37:09;;;;;;;6.78;2.05;;;36.40;20.80;;;;;;4989426;28;20054;-67
2022/06/23 09:39:44;;;;;;;5.30;1.73;;;36.20;21.20;;;;;;4989271;28;20052;-70
2022/06/23 09:42:41;;;;;;;2.03;1.30;;;36.40;18.30;;;;;;4989169;28;20105;-69
2022/06/23 09:45:21;;;;;;;3.50;1.60;;;35.00;18.50;;;;;;5056477;28;20034;-69
2022/06/23 09:47:49;;;;;;;2.10;1.10;;;32.90;20.60;;;;;;5056058;28;20025;-70
2022/06/23 09:50:43;;;;;;;2.90;1.50;;;32.80;20.90;;;;;;4988892;28;20111;-70
2022/06/23 09:53:37;;;;;;;7.00;1.92;;;33.80;20.70;;;;;;5059277;28;20033;-71
2022/06/23 09:56:28;;;;;;;2.65;1.35;;;33.90;19.80;;;;;;4992212;28;20030;-70
2022/06/23 09:59:18;;;;;;;4.63;1.38;;;34.10;19.80;;;;;;4991856;28;20032;-69
2022/06/23 10:02:02;;;;;;;3.05;1.25;;;35.00;19.30;;;;;;4992285;28;20515;-69
2022/06/23 10:04:55;;;;;;;7.13;1.40;;;35.60;18.40;;;;;;4992206;28;20062;-70
2022/06/23 10:07:39;;;;;;;4.97;1.42;;;35.30;18.50;;;;;;4991873;28;20079;-69
2022/06/23 10:10:44;;;;;;;1.95;1.52;;;34.40;19.40;;;;;;4990279;28;20495;-68
2022/06/23 10:13:22;;;;;;;3.20;1.48;;;34.00;20.10;;;;;;4992045;28;20035;-70
2022/06/23 10:16:11;;;;;;;2.50;1.77;;;34.50;20.80;;;;;;4992250;28;20022;-69
2022/06/23 10:19:06;;;;;;;2.35;1.52;;;34.80;20.30;;;;;;4989453;28;20022;-68
2022/06/23 10:22:05;;;;;;;4.13;1.45;;;35.10;20.00;;;;;;4991623;28;20091;-70
2022/06/23 10:24:37;;;;;;;2.75;1.63;;;35.10;19.50;;;;;;4992105;28;20045;-70
2022/06/23 10:27:12;;;;;;;4.22;1.80;;;34.70;20.10;;;;;;4991913;28;20022;-67
2022/06/23 10:30:01;;;;;;;3.38;2.08;;;34.30;20.90;;;;;;4993560;28;20079;-70
2022/06/23 10:32:48;;;;;;;5.22;1.90;;;34.00;22.30;;;;;;4996405;28;20104;-70
2022/06/23 10:35:14;;;;;;;8.57;2.20;;;33.50;22.10;;;;;;4997765;28;20050;-69
2022/06/23 10:38:19;;;;;;;13.13;2.13;;;33.40;22.40;;;;;;4996889;28;20526;-70
2022/06/23 10:41:14;;;;;;;1.90;1.58;;;33.40;23.10;;;;;;4995577;28;20056;-70
2022/06/23 10:43:45;;;;;;;4.13;1.90;;;32.30;22.20;;;;;;5042214;28;20519;-67
2022/06/23 10:46:36;;;;;;;5.30;1.90;;;31.80;23.30;;;;;;4995153;28;20026;-69
2022/06/23 10:49:40;;;;;;;5.90;1.98;;;31.70;24.40;;;;;;4991414;28;20033;-70
2022/06/23 10:52:27;;;;;;;7.30;1.85;;;31.60;23.70;;;;;;5058789;28;20120;-69
2022/06/23 10:55:14;;;;;;;3.25;1.83;;;31.60;23.50;;;;;;4991303;28;20060;-69
2022/06/23 10:57:50;;;;;;;3.17;1.63;;;31.20;22.60;;;;;;4990143;28;20026;-69
2022/06/23 11:00:25;;;;;;;2.80;1.60;;;31.00;23.20;;;;;;4991391;28;20029;-69
2022/06/23 11:03:12;;;;;;;3.33;1.75;;;30.90;23.10;;;;;;4991569;28;20029;-69
2022/06/23 11:05:47;;;;;;;2.17;1.60;;;30.80;22.50;;;;;;4991789;28;20022;-69
2022/06/23 11:08:39;;;;;;;6.03;1.85;;;30.90;23.00;;;;;;4991077;28;20031;-69
2022/06/23 11:11:13;;;;;;;5.53;1.90;;;30.60;22.20;;;;;;4991978;28;20495;-69
2022/06/23 11:14:07;;;;;;;2.60;1.30;;;30.30;22.80;;;;;;4990860;28;20031;-69
2022/06/23 11:17:10;;;;;;;2.92;1.20;;;30.40;21.40;;;;;;4990440;28;20027;-69
2022/06/23 11:19:46;;;;;;;1.25;0.90;;;30.60;20.30;;;;;;4989967;28;20503;-68
2022/06/23 11:22:30;;;;;;;2.95;1.73;;;30.70;20.80;;;;;;5062557;23;20068;-69
2022/06/23 11:25:01;;;;;;;4.03;1.27;;;30.70;20.50;;;;;;5026963;28;20037;-69
2022/06/23 11:28:08;;;;;;;4.07;1.30;;;30.90;22.20;;;;;;5027296;28;20479;-68
2022/06/23 11:30:55;;;;;;;4.63;1.73;;;30.90;20.70;;;;;;5029450;28;20490;-68
2022/06/23 11:33:36;;;;;;;1.63;1.25;;;30.80;20.60;;;;;;5012028;28;20029;-67
2022/06/23 11:36:25;;;;;;;2.78;1.60;;;30.50;20.70;;;;;;5029943;28;20028;-69
2022/06/23 11:39:12;;;;;;;5.18;1.60;;;30.30;21.30;;;;;;5028393;28;20030;-69
2022/06/23 11:42:06;;;;;;;3.35;1.73;;;30.40;21.40;;;;;;5030273;28;20032;-69
2022/06/23 11:44:52;;;;;;;11.90;1.85;;;30.60;22.10;;;;;;5030492;28;20086;-67
2022/06/23 11:47:37;;;;;;;3.63;1.90;;;30.40;21.20;;;;;;5028952;28;20483;-68
2022/06/23 11:50:15;;;;;;;5.13;1.55;;;30.20;20.90;;;;;;5029583;28;20368;-69
2022/06/23 11:52:56;;;;;;;10.50;1.80;;;30.10;21.30;;;;;;5029440;28;20025;-69
2022/06/23 11:55:21;;;;;;;5.03;1.25;;;30.00;20.50;;;;;;5029488;28;20086;-69
2022/06/23 11:58:24;;;;;;;2.97;1.45;;;30.20;20.80;;;;;;5028854;28;20487;-69
2022/06/23 12:00:53;;;;;;;2.80;1.20;;;30.40;20.10;;;;;;5029175;28;20383;-69
2022/06/23 12:03:32;;;;;;;2.47;1.40;;;30.50;20.00;;;;;;5029440;28;20036;-69
2022/06/23 12:06:06;;;;;;;4.90;1.27;;;30.80;20.30;;;;;;5029239;28;20030;-68
2022/06/23 12:08:49;;;;;;;2.53;1.35;;;30.80;19.90;;;;;;5028856;28;20082;-68
2022/06/23 12:11:15;;;;;;;4.70;2.65;;;30.90;19.20;;;;;;5028733;28;20022;-68
2022/06/23 12:13:42;;;;;;;3.58;1.55;;;31.00;19.70;;;;;;5028256;28;20471;-69
2022/06/23 12:16:08;;;;;;;3.97;1.48;;;31.00;19.70;;;;;;5029137;28;20382;-68
2022/06/23 12:18:49;;;;;;;4.20;1.30;;;30.90;18.80;;;;;;5009920;28;20022;-69
2022/06/23 12:21:27;;;;;;;;;;;30.60;18.70;;;;;;4992621;28;20037;-70
2022/06/23 12:24:20;;;;;;;2.55;1.25;;;30.70;19.40;;;;;;4989471;28;20014;-70
2022/06/23 12:27:25;;;;;;;2.22;1.25;;;30.80;19.50;;;;;;4988025;28;20068;-69
2022/06/23 12:30:07;;;;;;;3.10;1.42;;;30.50;18.30;;;;;;4989745;28;20037;-70
2022/06/23 12:32:47;;;;;;;1.35;1.25;;;30.60;18.60;;;;;;4989458;28;20027;-69
2022/06/23 12:35:24;;;;;;;1.70;1.10;;;30.60;19.20;;;;;;4972190;28;20022;-69
2022/06/23 12:38:10;;;;;;;4.82;1.23;;;30.70;18.60;;;;;;4989323;28;20018;-69
2022/06/23 12:40:46;;;;;;;3.08;1.48;;;30.70;18.00;;;;;;4989125;28;20686;-69
2022/06/23 12:43:19;;;;;;;1.85;1.35;;;30.50;19.00;;;;;;4989186;28;20026;-68
2022/06/23 12:45:54;;;;;;;3.33;1.30;;;30.40;19.60;;;;;;4989221;28;20050;-68
2022/06/23 12:48:44;;;;;;;4.75;1.30;;;30.50;20.40;;;;;;4988960;28;20105;-68
2022/06/23 12:51:32;;;;;;;4.40;1.45;;;30.50;20.10;;;;;;4989095;28;20122;-68
2022/06/23 12:54:24;;;;;;;3.95;1.50;;;30.50;22.70;;;;;;4989280;28;20030;-68
2022/06/23 12:57:06;;;;;;;2.25;1.65;;;30.70;21.50;;;;;;4989147;28;20023;-68
2022/06/23 12:59:49;;;;;;;2.92;1.00;;;30.60;20.40;;;;;;4971734;28;20176;-69
2022/06/23 13:02:24;;;;;;;0.98;0.98;;;30.70;19.30;;;;;;4989217;28;20027;-70
2022/06/23 13:05:09;;;;;;;2.72;1.33;;;30.80;18.90;;;;;;4989182;28;20019;-69
2022/06/23 13:07:47;;;;;;;5.38;1.85;;;30.90;20.70;;;;;;4988692;28;20019;-68
2022/06/23 13:10:31;;;;;;;4.38;1.30;;;31.00;20.90;;;;;;4971511;28;20156;-69
2022/06/23 13:13:22;;;;;;;2.65;1.55;;;30.90;21.40;;;;;;4971276;28;20023;-69
2022/06/23 13:15:50;;;;;;;3.55;1.30;;;30.70;21.50;;;;;;4989028;28;20022;-71
2022/06/23 13:18:38;;;;;;;2.40;1.83;;;30.80;20.30;;;;;;4988808;28;20019;-69
2022/06/23 13:21:25;;;;;;;2.90;1.40;;;30.90;21.20;;;;;;4988732;28;20038;-71
2022/06/23 13:23:57;;;;;;;1.80;1.27;;;30.90;21.10;;;;;;4988926;28;20076;-68
2022/06/23 13:26:30;;;;;;;3.70;1.58;;;30.90;21.80;;;;;;4991691;28;20416;-70
2022/06/23 13:29:14;;;;;;;3.22;1.20;;;31.00;20.90;;;;;;4991958;28;20034;-69
2022/06/23 13:31:59;;;;;;;3.42;1.52;;;31.00;20.90;;;;;;4992125;28;20061;-70
2022/06/23 13:34:27;;;;;;;5.30;1.70;;;30.90;20.40;;;;;;4974924;28;20503;-69
2022/06/23 13:37:14;;;;;;;3.28;1.20;;;31.00;20.30;;;;;;4992397;28;20023;-68
2022/06/23 13:40:13;;;;;;;5.15;1.70;;;31.00;19.80;;;;;;4996188;28;20025;-69
2022/06/23 13:42:51;;;;;;;0.93;0.88;;;31.00;19.40;;;;;;5005591;28;20612;-72
2022/06/23 13:45:35;;;;;;;3.92;1.35;;;31.00;18.20;;;;;;4977604;28;20105;-72
2022/06/23 13:48:15;;;;;;;2.30;0.98;;;30.90;19.10;;;;;;5005347;28;20029;-74
2022/06/23 13:50:59;;;;;;;1.37;1.20;;;30.80;19.00;;;;;;5004142;28;20059;-73
2022/06/23 13:53:59;;;;;;;1.90;1.42;;;30.80;19.40;;;;;;5050788;28;20023;-74
2022/06/23 13:57:01;;;;;;;8.15;1.85;;;30.60;19.60;;;;;;4925241;28;20034;-75
2022/06/23 13:59:29;;;;;;;;;;;30.70;19.60;;;;;;4999227;28;20049;-70
2022/06/23 14:02:03;;;;;;;4.95;1.35;;;30.80;19.50;;;;;;5007756;28;20399;-70
2022/06/23 14:04:38;;;;;;;4.30;1.33;;;30.80;19.50;;;;;;4997188;28;20022;-70
2022/06/23 14:07:11;;;;;;;3.67;1.20;;;30.80;19.50;;;;;;5000959;28;20070;-70
2022/06/23 14:09:52;;;;;;;2.50;1.02;;;30.90;19.40;;;;;;4995972;28;20172;-70
2022/06/23 14:12:37;;;;;;;2.13;1.33;;;30.70;18.70;;;;;;4996059;28;20022;-71
2022/06/23 14:15:42;;;;;;;2.53;1.42;;;30.60;19.10;;;;;;5000823;28;20361;-69